Search for airport 
image banner adimage banner adimage banner ad
image banner ad

CA22 - Lauppes Strip

Located in Sacramento, United States

ICAO - CA22, IATA -

Data provided by Airmate  

General information

Coordinates: N38°45'34" W121°35'7"
Elevation is 23 feet MSL.
Magnetic variation is 16° East
View others Airports in California

Operational data

Special qualification required
Current time UTC:
Current local time:
Weather at : KSMF - Sacramento Intl ( 7 km )
METAR: KSMF 260853Z 17013KT 10SM CLR 14/10 A2992 RMK AO2 SLP132 T01390100 53010
TAF: KSMF 260537Z 2606/2706 17010KT P6SM SKC FM260900 15008KT P6SM SCT250 FM261300 15012KT P6SM OVC010 FM261800 18007KT P6SM SKC FM270100 18014KT P6SM SCT250
View NOTAMs / SUP AIP / TFR affecting this airport [VIEW]
Communications frequencies: [VIEW]

Runways:

RWY identifierQFULength (ft)Width (ft)SurfaceLDA (ft)
15200030EARTH
33200030EARTH

Airport contact information

Address: Sacramento United States

Satellite view of CA22